createdAt,value
2019-02-12T00:00:56.347Z,2.69
2019-02-12T00:01:56.354Z,2.69
2019-02-12T00:02:56.323Z,2.73
2019-02-12T00:03:56.323Z,2.73
2019-02-12T00:04:56.300Z,2.73
2019-02-12T00:05:56.304Z,2.79
2019-02-12T00:06:56.315Z,2.61
2019-02-12T00:07:56.271Z,2.61
2019-02-12T00:08:56.274Z,2.66
2019-02-12T00:09:56.244Z,2.68
2019-02-12T00:10:56.245Z,2.77
2019-02-12T00:11:56.223Z,2.62
2019-02-12T00:12:56.250Z,2.76
2019-02-12T00:13:56.202Z,2.80
2019-02-12T00:14:56.212Z,2.74
2019-02-12T00:15:56.188Z,2.69
2019-02-12T00:16:56.177Z,2.69
2019-02-12T00:17:56.166Z,2.76
2019-02-12T00:18:56.168Z,2.71
2019-02-12T00:19:56.140Z,2.74
2019-02-12T00:20:56.144Z,2.68
2019-02-12T00:21:56.162Z,2.69
2019-02-12T00:22:56.124Z,2.68
2019-02-12T00:23:56.133Z,2.74
2019-02-12T00:24:56.090Z,2.69
2019-02-12T00:25:56.078Z,2.71
2019-02-12T00:26:56.087Z,2.73
2019-02-12T00:27:56.070Z,2.80
2019-02-12T00:28:56.050Z,2.80
2019-02-12T00:29:56.073Z,2.80
2019-02-12T00:30:56.021Z,2.81
2019-02-12T00:31:56.014Z,2.87
2019-02-12T00:32:56.016Z,2.84
2019-02-12T00:33:55.997Z,2.87
2019-02-12T00:34:55.993Z,2.83
2019-02-12T00:35:56.003Z,2.87
2019-02-12T00:36:55.957Z,2.86
2019-02-12T00:37:55.961Z,2.87
2019-02-12T00:38:55.952Z,2.84
2019-02-12T00:39:55.933Z,2.87
2019-02-12T00:40:55.946Z,2.89
2019-02-12T00:41:55.924Z,2.83
2019-02-12T00:42:55.895Z,2.83
2019-02-12T00:43:55.897Z,2.89
2019-02-12T00:44:55.880Z,2.83
2019-02-12T00:45:55.871Z,2.87
2019-02-12T00:46:55.882Z,2.86
2019-02-12T00:47:55.855Z,2.87
2019-02-12T00:48:55.830Z,2.99
2019-02-12T00:49:55.832Z,2.81
2019-02-12T00:50:55.818Z,2.86
2019-02-12T00:51:55.811Z,2.86
2019-02-12T00:52:55.822Z,2.94
2019-02-12T00:53:55.792Z,2.92
2019-02-12T00:54:55.768Z,2.98
2019-02-12T00:55:55.769Z,2.99
2019-02-12T00:56:55.754Z,2.94
2019-02-12T00:57:55.745Z,2.98
2019-02-12T00:58:55.755Z,3.01
2019-02-12T00:59:55.717Z,3.07
2019-02-12T01:00:55.707Z,2.94
2019-02-12T01:01:55.702Z,3.08
2019-02-12T01:02:55.687Z,3.12
2019-02-12T01:03:55.696Z,2.98
2019-02-12T01:04:55.662Z,2.99
2019-02-12T01:05:55.651Z,3.07
2019-02-12T01:06:55.649Z,3.12
2019-02-12T01:07:55.636Z,3.01
2019-02-12T01:08:55.625Z,2.98
2019-02-12T01:09:55.635Z,2.95
2019-02-12T01:10:55.629Z,3.10
2019-02-12T01:11:55.595Z,2.95
2019-02-12T01:12:55.591Z,2.97
2019-02-12T01:13:55.579Z,3.08
2019-02-12T01:14:55.565Z,3.01
2019-02-12T01:15:55.575Z,2.99
2019-02-12T01:16:55.556Z,3.04
2019-02-12T01:17:55.531Z,2.97
2019-02-12T01:18:55.523Z,2.98
2019-02-12T01:19:55.511Z,2.97
2019-02-12T01:20:55.527Z,2.94
2019-02-12T01:21:55.489Z,2.98
2019-02-12T01:22:55.471Z,3.01
2019-02-12T01:23:55.459Z,3.04
2019-02-12T01:24:55.467Z,3.01
2019-02-12T01:25:55.471Z,3.01
2019-02-12T01:26:55.456Z,3.05
2019-02-12T01:27:55.420Z,3.08
2019-02-12T01:28:55.409Z,2.95
2019-02-12T01:29:55.406Z,3.10
2019-02-12T01:30:55.426Z,3.10
2019-02-12T01:31:55.385Z,3.10
2019-02-12T01:32:55.423Z,3.12
2019-02-12T01:33:55.365Z,3.15
2019-02-12T01:34:55.344Z,3.12
2019-02-12T01:35:55.338Z,3.25
2019-02-12T01:36:55.353Z,3.17
2019-02-12T01:37:55.345Z,3.07
2019-02-12T01:38:55.353Z,3.26
2019-02-12T01:39:55.298Z,3.20
2019-02-12T01:40:55.290Z,3.25
2019-02-12T01:41:55.282Z,3.20
2019-02-12T01:42:55.281Z,3.22
2019-02-12T01:43:55.289Z,3.16
2019-02-12T01:44:55.246Z,3.25
2019-02-12T01:45:55.229Z,3.20
2019-02-12T01:46:55.226Z,3.22
2019-02-12T01:47:55.211Z,3.28
2019-02-12T01:48:55.197Z,3.25
2019-02-12T01:49:55.202Z,3.25
2019-02-12T01:50:55.195Z,3.23
2019-02-12T01:51:55.173Z,3.23
2019-02-12T01:52:55.154Z,3.15
2019-02-12T01:53:55.150Z,3.17
2019-02-12T01:54:55.154Z,3.25
2019-02-12T01:55:55.136Z,3.13
2019-02-12T01:56:55.118Z,3.13
2019-02-12T01:57:55.117Z,3.16
2019-02-12T01:58:55.113Z,3.20
2019-02-12T01:59:55.112Z,3.19
2019-02-12T02:00:55.071Z,3.19
2019-02-12T02:01:55.065Z,3.15
2019-02-12T02:02:55.057Z,3.10
2019-02-12T02:03:55.051Z,3.08
2019-02-12T02:04:55.193Z,3.05
2019-02-12T02:05:55.053Z,3.22
2019-02-12T02:06:55.014Z,3.12
2019-02-12T02:07:55.021Z,3.08
2019-02-12T02:08:54.988Z,3.07
2019-02-12T02:09:54.985Z,3.10
2019-02-12T02:10:54.975Z,3.08
2019-02-12T02:11:54.979Z,3.13
2019-02-12T02:12:54.950Z,3.08
2019-02-12T02:13:54.936Z,3.10
2019-02-12T02:14:54.920Z,3.10
2019-02-12T02:15:54.915Z,3.08
2019-02-12T02:16:54.912Z,3.10
2019-02-12T02:17:54.919Z,3.08
2019-02-12T02:18:54.884Z,3.08
2019-02-12T02:19:54.889Z,2.94
2019-02-12T02:20:54.865Z,2.94
2019-02-12T02:21:54.859Z,2.95
2019-02-12T02:22:54.864Z,2.94
2019-02-12T02:23:54.839Z,2.99
2019-02-12T02:24:54.822Z,2.99
2019-02-12T02:25:54.823Z,3.02
2019-02-12T02:26:54.803Z,2.97
2019-02-12T02:27:54.831Z,3.01
2019-02-12T02:28:54.813Z,2.95
2019-02-12T02:29:54.766Z,2.98
2019-02-12T02:30:54.771Z,2.95
2019-02-12T02:31:54.772Z,3.10
2019-02-12T02:32:54.742Z,3.07
2019-02-12T02:33:54.730Z,3.10
2019-02-12T02:34:54.775Z,3.02
2019-02-12T02:35:54.698Z,3.10
2019-02-12T02:36:54.701Z,3.08
2019-02-12T02:37:54.706Z,3.08
2019-02-12T02:38:54.707Z,3.04
2019-02-12T02:39:54.689Z,3.12
2019-02-12T02:40:54.647Z,3.07
2019-02-12T02:41:54.648Z,3.12
2019-02-12T02:42:54.629Z,3.12
2019-02-12T02:43:54.628Z,2.94
2019-02-12T02:44:54.643Z,3.10
2019-02-12T02:45:54.611Z,3.04
2019-02-12T02:46:54.618Z,3.07
2019-02-12T02:47:54.572Z,3.13
2019-02-12T02:48:54.571Z,3.12
2019-02-12T02:49:54.557Z,3.12
2019-02-12T02:50:54.581Z,3.12
2019-02-12T02:51:54.536Z,3.12
2019-02-12T02:52:54.528Z,3.13
2019-02-12T02:53:54.523Z,3.15
2019-02-12T02:54:54.518Z,3.12
2019-02-12T02:55:54.499Z,3.25
2019-02-12T02:56:54.486Z,3.16
2019-02-12T02:57:54.483Z,3.16
2019-02-12T02:58:54.459Z,3.22
2019-02-12T02:59:54.480Z,3.25
2019-02-12T03:00:54.447Z,3.13
2019-02-12T03:01:54.427Z,3.22
2019-02-12T03:02:54.416Z,3.08
2019-02-12T03:03:54.407Z,3.26
2019-02-12T03:04:54.394Z,3.12
2019-02-12T03:05:54.444Z,3.07
2019-02-12T03:06:54.381Z,3.20
2019-02-12T03:07:54.365Z,3.26
2019-02-12T03:08:54.353Z,3.25
2019-02-12T03:09:54.360Z,3.13
2019-02-12T03:10:54.369Z,3.19
2019-02-12T03:11:54.326Z,3.20
2019-02-12T03:12:54.337Z,3.17
2019-02-12T03:13:54.311Z,3.22
2019-02-12T03:14:54.293Z,3.08
2019-02-12T03:15:54.304Z,3.20
2019-02-12T03:16:54.265Z,3.17
2019-02-12T03:17:54.262Z,2.99
2019-02-12T03:18:54.260Z,3.05
2019-02-12T03:19:54.309Z,3.08
2019-02-12T03:20:54.239Z,3.01
2019-02-12T03:22:03.125Z,3.01
2019-02-12T03:22:55.206Z,3.01
2019-02-12T03:23:54.194Z,2.97
2019-02-12T03:24:54.207Z,2.97
2019-02-12T03:25:54.201Z,2.98
2019-02-12T03:26:54.163Z,3.02
2019-02-12T03:27:54.176Z,3.10
2019-02-12T03:28:54.150Z,3.01
2019-02-12T03:29:54.140Z,3.08
2019-02-12T03:30:54.141Z,3.10
2019-02-12T03:31:54.137Z,3.01
2019-02-12T03:32:54.110Z,3.10
2019-02-12T03:33:54.112Z,3.07
2019-02-12T03:34:54.085Z,3.10
2019-02-12T03:35:54.079Z,3.05
2019-02-12T03:36:54.096Z,3.05
2019-02-12T03:37:54.050Z,3.16
2019-02-12T03:38:54.035Z,3.12
2019-02-12T03:39:54.023Z,3.13
2019-02-12T03:40:54.012Z,3.08
2019-02-12T03:41:54.020Z,3.10
2019-02-12T03:42:54.027Z,3.13
2019-02-12T03:43:53.996Z,3.13
2019-02-12T03:44:53.986Z,3.05
2019-02-12T03:45:53.960Z,3.05
2019-02-12T03:46:54.026Z,3.15
2019-02-12T03:47:53.950Z,3.08
2019-02-12T03:48:53.965Z,3.07
2019-02-12T03:49:53.926Z,2.99
2019-02-12T03:50:53.928Z,2.97
2019-02-12T03:51:53.902Z,2.98
2019-02-12T03:52:53.896Z,3.01
2019-02-12T03:53:53.906Z,2.97
2019-02-12T03:54:53.884Z,3.08
2019-02-12T03:55:53.873Z,3.12
2019-02-12T03:56:53.922Z,3.01
2019-02-12T03:57:53.837Z,3.10
2019-02-12T03:58:53.834Z,2.97
2019-02-12T03:59:53.842Z,3.04
2019-02-12T04:00:53.799Z,3.01
2019-02-12T04:01:53.801Z,2.99
2019-02-12T04:02:53.797Z,2.95
2019-02-12T04:03:53.773Z,2.98
2019-02-12T04:04:53.771Z,3.04
2019-02-12T04:05:53.776Z,2.99
2019-02-12T04:06:53.745Z,3.01
2019-02-12T04:07:53.790Z,2.95
2019-02-12T04:08:53.740Z,3.02
2019-02-12T04:09:53.705Z,2.98
2019-02-12T04:10:53.705Z,3.02
2019-02-12T04:11:53.727Z,2.97
2019-02-12T04:12:53.682Z,2.97
2019-02-12T04:13:53.674Z,2.97
2019-02-12T04:14:53.653Z,2.98
2019-02-12T04:15:53.645Z,2.92
2019-02-12T04:16:53.645Z,2.92
2019-02-12T04:17:53.652Z,2.83
2019-02-12T04:18:53.612Z,2.84
2019-02-12T04:19:53.605Z,3.01
2019-02-12T04:20:53.592Z,2.87
2019-02-12T04:21:53.638Z,2.87
2019-02-12T04:22:53.585Z,2.89
2019-02-12T04:23:53.588Z,2.81
2019-02-12T04:24:53.546Z,2.83
2019-02-12T04:25:53.546Z,2.81
2019-02-12T04:26:53.535Z,2.83
2019-02-12T04:27:55.361Z,2.86
2019-02-12T04:28:53.522Z,2.86
2019-02-12T04:29:53.517Z,2.83
2019-02-12T04:30:53.491Z,2.83
2019-02-12T04:31:53.478Z,2.77
2019-02-12T04:32:53.478Z,2.77
2019-02-12T04:33:53.531Z,2.81
2019-02-12T04:34:53.451Z,2.71
2019-02-12T04:35:53.461Z,2.71
2019-02-12T04:36:53.421Z,2.69
2019-02-12T04:37:53.432Z,2.68
2019-02-12T04:38:53.405Z,2.74
2019-02-12T04:39:53.449Z,2.83
2019-02-12T04:40:53.377Z,2.81
2019-02-12T04:41:53.385Z,2.84
2019-02-12T04:42:53.365Z,2.80
2019-02-12T04:43:53.354Z,2.81
2019-02-12T04:44:54.319Z,2.86
2019-02-12T04:45:53.351Z,2.83
2019-02-12T04:46:53.320Z,2.89
2019-02-12T04:47:53.308Z,2.83
2019-02-12T04:48:53.320Z,2.87
2019-02-12T04:49:53.280Z,2.84
2019-02-12T04:50:53.307Z,2.84
2019-02-12T04:51:53.273Z,2.86
2019-02-12T04:52:53.332Z,2.80
2019-02-12T04:53:53.263Z,2.79
2019-02-12T04:54:53.254Z,2.74
2019-02-12T04:55:53.244Z,2.81
2019-02-12T04:56:53.285Z,2.74
2019-02-12T04:57:53.208Z,2.73
2019-02-12T04:58:53.202Z,2.74
2019-02-12T04:59:53.181Z,2.66
2019-02-12T05:00:53.172Z,2.73
2019-02-12T05:01:53.154Z,2.79
2019-02-12T05:02:53.175Z,2.68
2019-02-12T05:03:53.150Z,2.73
2019-02-12T05:04:53.137Z,2.71
2019-02-12T05:05:53.137Z,2.68
2019-02-12T05:06:53.136Z,2.66
2019-02-12T05:07:53.154Z,2.68
2019-02-12T05:08:53.084Z,2.61
2019-02-12T05:09:53.075Z,2.68
2019-02-12T05:10:53.061Z,2.58
2019-02-12T05:11:53.049Z,2.63
2019-02-12T05:12:53.087Z,2.65
2019-02-12T05:13:53.031Z,2.69
2019-02-12T05:14:53.021Z,2.63
2019-02-12T05:15:53.003Z,2.63
2019-02-12T05:16:52.997Z,2.56
2019-02-12T05:17:53.008Z,2.51
2019-02-12T05:18:53.010Z,2.59
2019-02-12T05:19:52.969Z,2.65
2019-02-12T05:20:52.959Z,2.61
2019-02-12T05:21:52.962Z,2.59
2019-02-12T05:22:52.967Z,2.66
2019-02-12T05:23:52.932Z,2.65
2019-02-12T05:24:52.917Z,2.68
2019-02-12T05:25:52.897Z,2.61
2019-02-12T05:26:52.902Z,2.58
2019-02-12T05:27:52.909Z,2.65
2019-02-12T05:28:52.878Z,2.63
2019-02-12T05:29:52.854Z,2.66
2019-02-12T05:30:52.851Z,2.65
2019-02-12T05:31:52.842Z,2.68
2019-02-12T05:32:52.853Z,2.61
2019-02-12T05:33:52.817Z,2.71
2019-02-12T05:34:52.830Z,2.76
2019-02-12T05:35:52.841Z,2.73
2019-02-12T05:36:52.784Z,2.69
2019-02-12T05:37:52.833Z,2.65
2019-02-12T05:38:52.777Z,2.71
2019-02-12T05:39:52.751Z,2.69
2019-02-12T05:40:52.735Z,2.76
2019-02-12T05:41:52.722Z,2.73
2019-02-12T05:42:52.722Z,2.71
2019-02-12T05:43:52.728Z,2.71
2019-02-12T05:44:52.707Z,2.79
2019-02-12T05:45:52.722Z,2.73
2019-02-12T05:46:52.685Z,2.69
2019-02-12T05:47:52.694Z,2.84
2019-02-12T05:48:52.649Z,2.81
2019-02-12T05:49:52.703Z,2.83
2019-02-12T05:50:52.637Z,2.89
2019-02-12T05:51:52.627Z,2.81
2019-02-12T05:52:54.785Z,2.81
2019-02-12T05:53:52.617Z,2.86
2019-02-12T05:54:52.594Z,2.90
2019-02-12T05:55:52.589Z,2.83
2019-02-12T05:56:52.568Z,2.94
2019-02-12T05:57:52.569Z,2.95
2019-02-12T05:58:52.592Z,2.98
2019-02-12T05:59:52.541Z,3.02
2019-02-12T06:00:52.528Z,2.98
2019-02-12T06:01:52.521Z,2.97
2019-02-12T06:02:52.508Z,2.99
2019-02-12T06:03:52.519Z,2.92
2019-02-12T06:04:52.493Z,2.97
2019-02-12T06:05:52.485Z,3.15
2019-02-12T06:06:52.455Z,3.13
2019-02-12T06:07:52.465Z,3.01
2019-02-12T06:08:52.445Z,3.07
2019-02-12T06:09:52.463Z,3.12
2019-02-12T06:10:52.420Z,3.08
2019-02-12T06:11:52.412Z,3.15
2019-02-12T06:12:52.402Z,3.16
2019-02-12T06:13:52.387Z,3.12
2019-02-12T06:14:52.383Z,3.12
2019-02-12T06:15:52.392Z,3.10
2019-02-12T06:16:52.376Z,3.07
2019-02-12T06:17:52.353Z,3.13
2019-02-12T06:18:52.340Z,3.12
2019-02-12T06:19:52.342Z,3.08
2019-02-12T06:20:52.314Z,3.13
2019-02-12T06:21:52.332Z,3.20
2019-02-12T06:22:52.326Z,3.25
2019-02-12T06:23:52.275Z,3.26
2019-02-12T06:24:52.275Z,3.25
2019-02-12T06:25:52.275Z,3.16
2019-02-12T06:26:52.259Z,3.25
2019-02-12T06:27:52.289Z,3.17
2019-02-12T06:28:52.251Z,3.13
2019-02-12T06:29:52.223Z,3.19
2019-02-12T06:30:52.225Z,3.12
2019-02-12T06:31:52.191Z,3.22
2019-02-12T06:32:52.194Z,3.20
2019-02-12T06:33:52.190Z,3.08
2019-02-12T06:34:52.163Z,3.08
2019-02-12T06:35:52.161Z,3.08
2019-02-12T06:36:52.156Z,3.15
2019-02-12T06:37:52.134Z,3.15
2019-02-12T06:38:52.163Z,3.12
2019-02-12T06:39:52.110Z,3.13
2019-02-12T06:40:52.103Z,3.15
2019-02-12T06:41:52.096Z,3.15
2019-02-12T06:42:52.087Z,3.12
2019-02-12T06:43:52.137Z,3.13
2019-02-12T06:44:52.058Z,3.08
2019-02-12T06:45:52.065Z,3.08
2019-02-12T06:46:52.053Z,3.15
2019-02-12T06:47:52.029Z,3.13
2019-02-12T06:48:52.018Z,3.15
2019-02-12T06:49:52.049Z,3.10
2019-02-12T06:50:52.005Z,3.19
2019-02-12T06:51:51.990Z,3.20
2019-02-12T06:52:51.969Z,3.16
2019-02-12T06:53:51.991Z,3.15
2019-02-12T06:54:51.968Z,3.15
2019-02-12T06:55:51.977Z,3.22
2019-02-12T06:56:51.942Z,3.12
2019-02-12T06:57:51.917Z,3.12
2019-02-12T06:58:51.920Z,3.28
2019-02-12T06:59:51.922Z,3.17
2019-02-12T07:00:51.927Z,3.26
2019-02-12T07:01:51.894Z,3.23
2019-02-12T07:02:51.885Z,3.20
2019-02-12T07:03:51.902Z,3.25
2019-02-12T07:04:51.852Z,3.20
2019-02-12T07:05:51.847Z,3.19
2019-02-12T07:06:51.874Z,3.26
2019-02-12T07:07:51.820Z,3.26
2019-02-12T07:08:51.811Z,3.22
2019-02-12T07:09:51.801Z,3.19
2019-02-12T07:10:51.790Z,3.34
2019-02-12T07:11:51.796Z,3.22
2019-02-12T07:12:51.795Z,3.25
2019-02-12T07:13:51.750Z,3.22
2019-02-12T07:14:51.758Z,3.19
2019-02-12T07:15:51.733Z,3.23
2019-02-12T07:16:51.722Z,3.22
2019-02-12T07:17:51.718Z,3.25
2019-02-12T07:18:51.727Z,3.25
2019-02-12T07:19:51.697Z,3.25
2019-02-12T07:20:51.686Z,3.19
2019-02-12T07:21:51.664Z,3.17
2019-02-12T07:22:51.665Z,3.19
2019-02-12T07:23:51.666Z,3.15
2019-02-12T07:24:51.681Z,3.16
2019-02-12T07:25:51.639Z,3.07
2019-02-12T07:26:51.622Z,2.97
2019-02-12T07:27:51.602Z,2.95
2019-02-12T07:28:51.641Z,2.97
2019-02-12T07:29:51.609Z,3.01
2019-02-12T07:30:51.614Z,2.94
2019-02-12T07:31:51.566Z,2.94
2019-02-12T07:32:51.578Z,3.01
2019-02-12T07:33:51.561Z,2.84
2019-02-12T07:34:51.548Z,2.97
2019-02-12T07:35:51.550Z,2.97
2019-02-12T07:36:51.562Z,2.97
2019-02-12T07:37:51.504Z,2.94
2019-02-12T07:38:51.485Z,2.94
2019-02-12T07:39:51.480Z,2.98
2019-02-12T07:40:51.470Z,2.97
2019-02-12T07:41:51.486Z,2.97
2019-02-12T07:42:51.478Z,3.01
2019-02-12T07:43:51.458Z,3.01
2019-02-12T07:44:51.423Z,2.99
2019-02-12T07:45:51.427Z,3.01
2019-02-12T07:46:51.430Z,3.01
2019-02-12T07:47:51.417Z,3.05
2019-02-12T07:48:51.382Z,2.97
2019-02-12T07:49:51.384Z,2.98
2019-02-12T07:50:51.397Z,2.99
2019-02-12T07:51:51.360Z,2.98
2019-02-12T07:52:51.367Z,3.05
2019-02-12T07:53:51.362Z,2.98
2019-02-12T07:54:51.322Z,2.98
2019-02-12T07:55:51.559Z,3.08
2019-02-12T07:56:51.300Z,2.99
2019-02-12T07:57:51.302Z,3.04
2019-02-12T07:58:51.338Z,3.12
2019-02-12T07:59:51.291Z,3.13
2019-02-12T08:00:51.260Z,3.08
2019-02-12T08:01:51.239Z,3.08
2019-02-12T08:02:51.233Z,3.15
2019-02-12T08:03:51.232Z,3.19
2019-02-12T08:04:51.244Z,3.19
2019-02-12T08:05:51.215Z,3.20
2019-02-12T08:06:51.188Z,3.20
2019-02-12T08:07:51.180Z,3.16
2019-02-12T08:08:51.175Z,3.07
2019-02-12T08:09:51.164Z,3.17
2019-02-12T08:10:51.177Z,3.07
2019-02-12T08:11:51.138Z,3.19
2019-02-12T08:12:51.133Z,3.23
2019-02-12T08:13:51.109Z,3.31
2019-02-12T08:14:51.111Z,3.19
2019-02-12T08:15:51.103Z,3.23
2019-02-12T08:16:51.103Z,3.19
2019-02-12T08:17:51.075Z,3.30
2019-02-12T08:18:51.063Z,3.31
2019-02-12T08:19:51.065Z,3.33
2019-02-12T08:20:51.041Z,3.22
2019-02-12T08:21:51.045Z,3.31
2019-02-12T08:22:51.045Z,3.25
2019-02-12T08:23:51.019Z,3.28
2019-02-12T08:24:51.019Z,3.23
2019-02-12T08:25:50.989Z,3.25
2019-02-12T08:26:50.976Z,3.26
2019-02-12T08:27:50.976Z,3.28
2019-02-12T08:28:52.154Z,3.46
2019-02-12T08:29:50.940Z,3.45
2019-02-12T08:30:50.941Z,3.44
2019-02-12T08:31:50.931Z,3.45
2019-02-12T08:32:50.920Z,3.49
2019-02-12T08:33:50.915Z,3.54
2019-02-12T08:34:50.927Z,3.59
2019-02-12T08:35:57.092Z,3.56
2019-02-12T08:36:51.868Z,3.68
2019-02-12T08:37:50.850Z,3.67
2019-02-12T08:38:50.877Z,3.70
2019-02-12T08:39:50.854Z,3.81
2019-02-12T08:40:50.873Z,3.77
2019-02-12T08:41:50.822Z,3.78
2019-02-12T08:42:50.804Z,3.89
2019-02-12T08:43:50.792Z,3.81
2019-02-12T08:44:50.787Z,3.89
2019-02-12T08:45:50.764Z,3.92
2019-02-12T08:46:50.785Z,3.95
2019-02-12T08:47:50.768Z,3.92
2019-02-12T08:48:50.772Z,4.00
2019-02-12T08:49:50.735Z,4.07
2019-02-12T08:50:50.718Z,4.06
2019-02-12T08:51:50.779Z,4.06
2019-02-12T08:52:50.696Z,4.00
2019-02-12T08:53:50.903Z,4.07
2019-02-12T08:54:50.733Z,4.16
2019-02-12T08:55:50.673Z,4.14
2019-02-12T08:56:50.649Z,4.20
2019-02-12T08:57:50.684Z,4.26
2019-02-12T08:58:50.634Z,4.28
2019-02-12T08:59:50.654Z,4.28
2019-02-12T09:00:50.608Z,4.29
2019-02-12T09:01:50.651Z,4.28
2019-02-12T09:02:50.594Z,4.34
2019-02-12T09:03:50.623Z,4.29
2019-02-12T09:04:50.570Z,4.31
2019-02-12T09:05:50.560Z,4.29
2019-02-12T09:06:50.542Z,4.31
2019-02-12T09:07:50.541Z,4.29
2019-02-12T09:08:50.549Z,4.26
2019-02-12T09:09:50.567Z,4.34
2019-02-12T09:10:50.519Z,4.29
2019-02-12T09:11:50.518Z,4.29
2019-02-12T09:12:50.493Z,4.28
2019-02-12T09:13:50.488Z,4.31
2019-02-12T09:14:50.466Z,4.31
2019-02-12T09:15:50.495Z,4.24
2019-02-12T09:16:50.453Z,4.26
2019-02-12T09:17:50.434Z,4.39
2019-02-12T09:18:50.420Z,4.32
2019-02-12T09:19:50.421Z,4.34
2019-02-12T09:20:50.404Z,4.31
2019-02-12T09:21:50.444Z,4.39
2019-02-12T09:22:50.393Z,4.42
2019-02-12T09:23:59.543Z,4.47
2019-02-12T09:24:51.359Z,4.46
2019-02-12T09:25:50.347Z,4.44
2019-02-12T09:26:50.362Z,4.56
2019-02-12T09:27:50.317Z,4.49
2019-02-12T09:28:50.330Z,4.53
2019-02-12T09:29:50.299Z,4.57
2019-02-12T09:30:50.292Z,4.62
2019-02-12T09:31:50.287Z,4.62
2019-02-12T09:32:50.319Z,4.64
2019-02-12T09:33:50.266Z,4.65
2019-02-12T09:34:50.263Z,4.61
2019-02-12T09:35:50.254Z,4.57
2019-02-12T09:36:50.229Z,4.59
2019-02-12T09:37:50.220Z,4.56
2019-02-12T09:38:50.237Z,4.67
2019-02-12T09:39:50.197Z,4.62
2019-02-12T09:40:50.207Z,4.61
2019-02-12T09:41:50.176Z,4.54
2019-02-12T09:42:50.182Z,4.69
2019-02-12T09:43:50.172Z,4.61
2019-02-12T09:44:50.170Z,4.47
2019-02-12T09:45:50.140Z,4.49
2019-02-12T09:46:50.222Z,4.42
2019-02-12T09:47:50.115Z,4.28
2019-02-12T09:48:50.111Z,4.16
2019-02-12T09:49:50.232Z,4.14
2019-02-12T09:50:50.078Z,4.11
2019-02-12T09:51:50.074Z,4.07
2019-02-12T09:52:50.065Z,3.90
2019-02-12T09:53:50.055Z,3.90
2019-02-12T09:54:50.061Z,3.81
2019-02-12T09:55:50.071Z,3.75
2019-02-12T09:56:50.011Z,3.75
2019-02-12T09:57:50.015Z,3.74
2019-02-12T09:58:49.992Z,3.82
2019-02-12T09:59:49.994Z,3.88
2019-02-12T10:00:49.984Z,3.90
2019-02-12T10:01:49.988Z,3.88
2019-02-12T10:02:49.953Z,3.88
2019-02-12T10:03:49.943Z,3.84
2019-02-12T10:04:49.931Z,3.88
2019-02-12T10:05:49.928Z,3.88
2019-02-12T10:06:49.912Z,3.86
2019-02-12T10:07:49.963Z,3.84
2019-02-12T10:08:49.894Z,3.90
2019-02-12T10:09:49.889Z,3.86
2019-02-12T10:10:49.875Z,3.89
2019-02-12T10:11:49.860Z,3.95
2019-02-12T10:12:49.871Z,3.89
2019-02-12T10:13:49.875Z,3.89
2019-02-12T10:14:49.828Z,3.88
2019-02-12T10:15:49.817Z,3.84
2019-02-12T10:16:49.812Z,3.80
2019-02-12T10:17:49.806Z,3.74
2019-02-12T10:18:49.806Z,3.68
2019-02-12T10:19:49.805Z,3.60
2019-02-12T10:20:49.768Z,3.68
2019-02-12T10:21:49.782Z,3.67
2019-02-12T10:22:49.740Z,3.84
2019-02-12T10:23:49.787Z,3.78
2019-02-12T10:24:49.725Z,3.80
2019-02-12T10:25:49.718Z,3.86
2019-02-12T10:26:49.716Z,3.90
2019-02-12T10:27:49.699Z,3.92
2019-02-12T10:28:49.679Z,3.98
2019-02-12T10:29:49.706Z,3.98
2019-02-12T10:30:49.680Z,3.93
2019-02-12T10:31:49.653Z,4.06
2019-02-12T10:32:49.658Z,4.11
2019-02-12T10:33:49.631Z,4.16
2019-02-12T10:34:49.618Z,4.25
2019-02-12T10:35:49.636Z,4.25
2019-02-12T10:36:49.600Z,4.39
2019-02-12T10:37:49.592Z,4.39
2019-02-12T10:38:49.657Z,4.46
2019-02-12T10:39:49.570Z,4.54
2019-02-12T10:40:49.556Z,4.57
2019-02-12T10:41:49.565Z,4.54
2019-02-12T10:42:49.545Z,4.74
2019-02-12T10:43:49.537Z,4.75
2019-02-12T10:44:49.524Z,4.83
2019-02-12T10:45:49.505Z,4.97
2019-02-12T10:46:49.492Z,4.94
2019-02-12T10:47:49.522Z,4.94
2019-02-12T10:48:49.502Z,4.91
2019-02-12T10:49:49.483Z,4.94
2019-02-12T10:50:49.452Z,4.91
2019-02-12T10:51:50.988Z,4.94
2019-02-12T10:52:49.432Z,5.02
2019-02-12T10:53:49.461Z,5.12
2019-02-12T10:54:49.422Z,5.08
2019-02-12T10:55:49.406Z,5.08
2019-02-12T10:56:49.383Z,5.04
2019-02-12T10:57:49.382Z,5.22
2019-02-12T10:58:49.376Z,5.12
2019-02-12T10:59:49.380Z,5.15
2019-02-12T11:00:49.382Z,5.17
2019-02-12T11:01:49.351Z,5.22
2019-02-12T11:02:49.325Z,5.32
2019-02-12T11:03:49.316Z,5.29
2019-02-12T11:04:49.316Z,5.41
2019-02-12T11:05:49.308Z,5.35
2019-02-12T11:06:49.299Z,5.37
2019-02-12T11:07:49.284Z,5.29
2019-02-12T11:08:49.302Z,5.24
2019-02-12T11:09:49.254Z,5.33
2019-02-12T11:10:49.264Z,5.29
2019-02-12T11:11:49.249Z,5.32
2019-02-12T11:12:49.223Z,5.35
2019-02-12T11:13:49.221Z,5.35
2019-02-12T11:14:49.201Z,5.38
2019-02-12T11:15:49.228Z,5.40
2019-02-12T11:16:49.174Z,5.41
2019-02-12T11:17:49.176Z,5.40
2019-02-12T11:18:49.158Z,5.51
2019-02-12T11:19:49.166Z,5.66
2019-02-12T11:20:49.131Z,5.60
2019-02-12T11:21:49.148Z,5.75
2019-02-12T11:22:49.112Z,5.75
2019-02-12T11:23:49.127Z,5.74
2019-02-12T11:24:49.100Z,5.74
2019-02-12T11:25:49.076Z,5.73
2019-02-12T11:26:49.112Z,5.77
2019-02-12T11:27:49.058Z,5.60
2019-02-12T11:28:49.055Z,5.73
2019-02-12T11:29:49.053Z,5.75
2019-02-12T11:30:49.039Z,5.84
2019-02-12T11:31:49.036Z,5.84
2019-02-12T11:32:49.082Z,5.84
2019-02-12T11:33:48.998Z,5.87
2019-02-12T11:34:49.008Z,5.84
2019-02-12T11:35:48.974Z,5.90
2019-02-12T11:36:48.975Z,5.92
2019-02-12T11:37:48.953Z,5.87
2019-02-12T11:38:48.980Z,5.87
2019-02-12T11:39:48.937Z,5.87
2019-02-12T11:40:48.937Z,5.88
2019-02-12T11:41:48.911Z,5.87
2019-02-12T11:42:48.920Z,5.85
2019-02-12T11:43:48.917Z,5.90
2019-02-12T11:44:48.914Z,5.98
2019-02-12T11:45:48.865Z,5.92
2019-02-12T11:46:48.877Z,5.85
2019-02-12T11:47:48.902Z,5.95
2019-02-12T11:48:48.866Z,6.03
2019-02-12T11:49:48.828Z,5.96
2019-02-12T11:50:48.840Z,5.96
2019-02-12T11:51:48.810Z,5.93
2019-02-12T11:52:48.820Z,6.02
2019-02-12T11:53:48.787Z,6.10
2019-02-12T11:54:48.788Z,5.93
2019-02-12T11:55:48.761Z,6.10
2019-02-12T11:56:48.775Z,6.13
2019-02-12T11:57:48.748Z,5.98
2019-02-12T11:58:48.742Z,6.08
2019-02-12T11:59:48.723Z,6.13
2019-02-12T12:00:48.725Z,6.06
2019-02-12T12:01:48.697Z,5.96
2019-02-12T12:02:48.702Z,6.14
2019-02-12T12:03:48.673Z,6.08
2019-02-12T12:04:48.675Z,6.03
2019-02-12T12:05:48.662Z,6.11
2019-02-12T12:06:48.662Z,6.13
2019-02-12T12:07:48.669Z,6.10
2019-02-12T12:08:48.629Z,6.19
2019-02-12T12:09:48.627Z,6.20
2019-02-12T12:10:48.636Z,6.19
2019-02-12T12:11:48.623Z,6.20
2019-02-12T12:12:48.595Z,6.11
2019-02-12T12:13:48.608Z,6.14
2019-02-12T12:14:48.565Z,6.13
2019-02-12T12:15:48.562Z,6.30
2019-02-12T12:16:48.537Z,6.28
2019-02-12T12:17:48.557Z,6.39
2019-02-12T12:18:48.539Z,6.38
2019-02-12T12:19:48.531Z,6.40
2019-02-12T12:20:48.501Z,6.43
2019-02-12T12:21:48.490Z,6.40
2019-02-12T12:22:48.513Z,6.48
2019-02-12T12:23:48.470Z,6.40
2019-02-12T12:24:51.538Z,6.38
2019-02-12T12:25:48.462Z,6.28
2019-02-12T12:26:48.431Z,6.27
2019-02-12T12:27:48.425Z,6.33
2019-02-12T12:28:48.412Z,6.27
2019-02-12T12:29:48.415Z,6.28
2019-02-12T12:30:48.391Z,6.21
2019-02-12T12:31:48.391Z,6.21
2019-02-12T12:32:48.374Z,6.32
2019-02-12T12:33:48.366Z,6.40
2019-02-12T12:34:48.355Z,6.42
2019-02-12T12:35:48.348Z,6.48
2019-02-12T12:36:48.381Z,6.38
2019-02-12T12:37:48.314Z,6.40
2019-02-12T12:38:48.299Z,6.38
2019-02-12T12:39:48.310Z,6.43
2019-02-12T12:40:48.281Z,6.58
2019-02-12T12:41:48.270Z,6.69
2019-02-12T12:42:48.279Z,6.69
2019-02-12T12:43:48.243Z,6.65
2019-02-12T12:44:48.241Z,6.71
2019-02-12T12:45:48.225Z,6.71
2019-02-12T12:46:48.220Z,6.82
2019-02-12T12:47:48.230Z,6.82
2019-02-12T12:48:48.189Z,6.90
2019-02-12T12:49:48.243Z,6.82
2019-02-12T12:50:48.187Z,6.94
2019-02-12T12:51:48.169Z,6.99
2019-02-12T12:52:48.181Z,6.97
2019-02-12T12:53:48.143Z,6.96
2019-02-12T12:54:48.124Z,6.96
2019-02-12T12:55:48.128Z,6.91
2019-02-12T12:56:48.111Z,6.90
2019-02-12T12:57:48.091Z,7.00
2019-02-12T12:58:48.113Z,6.93
2019-02-12T12:59:48.087Z,6.89
2019-02-12T13:00:48.081Z,6.97
2019-02-12T13:01:48.093Z,6.83
2019-02-12T13:02:48.066Z,6.87
2019-02-12T13:03:48.034Z,6.79
2019-02-12T13:04:48.080Z,6.82
2019-02-12T13:05:48.012Z,6.78
2019-02-12T13:06:48.007Z,6.69
2019-02-12T13:07:48.015Z,6.64
2019-02-12T13:08:48.006Z,6.81
2019-02-12T13:09:47.969Z,6.79
2019-02-12T13:10:47.971Z,6.81
2019-02-12T13:11:47.944Z,6.78
2019-02-12T13:12:47.944Z,6.76
2019-02-12T13:13:48.027Z,6.83
2019-02-12T13:14:47.916Z,6.89
2019-02-12T13:15:47.927Z,6.79
2019-02-12T13:16:47.891Z,6.81
2019-02-12T13:17:47.874Z,6.81
2019-02-12T13:18:47.876Z,6.79